createdAt,value
2019-05-01T00:01:11.203Z,11.90
2019-05-01T00:04:01.004Z,11.80
2019-05-01T00:06:34.711Z,11.80
2019-05-01T00:09:01.948Z,11.70
2019-05-01T00:11:29.202Z,11.70
2019-05-01T00:13:56.571Z,11.60
2019-05-01T00:16:23.841Z,11.80
2019-05-01T00:18:51.103Z,11.70
2019-05-01T00:21:18.352Z,11.60
2019-05-01T00:23:45.590Z,11.50
2019-05-01T00:26:12.823Z,11.60
2019-05-01T00:28:40.071Z,11.60
2019-05-01T00:31:07.379Z,11.40
2019-05-01T00:33:34.581Z,11.50
2019-05-01T00:36:01.850Z,11.50
2019-05-01T00:38:29.100Z,11.50
2019-05-01T00:40:56.337Z,11.40
2019-05-01T00:43:23.585Z,11.40
2019-05-01T00:45:50.918Z,11.50
2019-05-01T00:48:18.149Z,11.40
2019-05-01T00:50:45.418Z,11.40
2019-05-01T00:53:12.647Z,11.50
2019-05-01T00:55:47.319Z,11.30
2019-05-01T00:58:29.312Z,11.30
2019-05-01T01:01:14.844Z,11.40
2019-05-01T01:03:42.170Z,11.30
2019-05-01T01:06:09.872Z,11.20
2019-05-01T01:08:37.082Z,11.20
2019-05-01T01:11:04.336Z,11.30
2019-05-01T01:13:31.630Z,11.30
2019-05-01T01:15:58.858Z,11.10
2019-05-01T01:18:26.117Z,11.30
2019-05-01T01:20:53.494Z,11.00
2019-05-01T01:23:21.386Z,10.90
2019-05-01T01:25:48.607Z,10.80
2019-05-01T01:28:16.479Z,10.80
2019-05-01T01:30:55.632Z,10.90
2019-05-01T01:33:12.824Z,10.80
2019-05-01T01:35:40.055Z,10.70
2019-05-01T01:38:07.297Z,10.70
2019-05-01T01:40:35.242Z,10.90
2019-05-01T01:43:22.082Z,10.80
2019-05-01T01:45:50.801Z,10.70
2019-05-01T01:48:18.550Z,10.50
2019-05-01T01:50:46.407Z,10.60
2019-05-01T01:53:17.523Z,10.70
2019-05-01T01:55:45.555Z,10.60
2019-05-01T01:58:15.649Z,10.50
2019-05-01T02:01:09.201Z,10.60
2019-05-01T02:03:32.973Z,10.50
2019-05-01T02:06:00.287Z,10.50
2019-05-01T02:08:27.574Z,10.50
2019-05-01T02:10:54.782Z,10.50
2019-05-01T02:13:22.456Z,10.50
2019-05-01T02:15:49.703Z,10.40
2019-05-01T02:18:16.923Z,10.40
2019-05-01T02:20:44.153Z,10.40
2019-05-01T02:23:11.383Z,10.50
2019-05-01T02:25:40.591Z,10.50
2019-05-01T02:28:33.950Z,10.50
2019-05-01T02:31:28.193Z,10.40
2019-05-01T02:33:55.033Z,10.30
2019-05-01T02:36:23.902Z,10.20
2019-05-01T02:38:53.693Z,10.30
2019-05-01T02:41:24.317Z,10.10
2019-05-01T02:43:55.184Z,10.10
2019-05-01T02:46:24.752Z,10.10
2019-05-01T02:48:58.859Z,10.00
2019-05-01T02:51:26.394Z,10.00
2019-05-01T02:53:54.501Z,10.10
2019-05-01T02:56:47.644Z,10.20
2019-05-01T02:59:14.999Z,10.10
2019-05-01T03:01:47.640Z,10.10
2019-05-01T03:04:11.580Z,10.00
2019-05-01T03:06:39.917Z,10.00
2019-05-01T03:09:07.892Z,10.00
2019-05-01T03:11:36.983Z,10.00
2019-05-01T03:14:05.429Z,10.00
2019-05-01T03:16:34.143Z,9.90
2019-05-01T03:19:04.840Z,9.90
2019-05-01T03:21:43.595Z,9.90
2019-05-01T03:24:14.370Z,10.00
2019-05-01T03:26:42.001Z,9.90
2019-05-01T03:29:09.323Z,10.00
2019-05-01T03:31:36.557Z,9.90
2019-05-01T03:34:04.204Z,9.80
2019-05-01T03:36:31.808Z,9.90
2019-05-01T03:38:59.429Z,9.90
2019-05-01T03:41:26.781Z,10.10
2019-05-01T03:43:54.329Z,9.90
2019-05-01T03:46:22.021Z,9.90
2019-05-01T03:48:49.463Z,9.80
2019-05-01T03:51:16.776Z,9.60
2019-05-01T03:53:44.203Z,9.50
2019-05-01T03:56:11.528Z,9.50
2019-05-01T03:58:39.016Z,9.50
2019-05-01T04:01:37.867Z,9.60
2019-05-01T04:04:09.548Z,9.50
2019-05-01T04:06:38.428Z,9.60
2019-05-01T04:09:06.995Z,9.50
2019-05-01T04:11:34.939Z,9.50
2019-05-01T04:14:03.053Z,9.70
2019-05-01T04:16:31.126Z,9.50
2019-05-01T04:18:58.818Z,9.40
2019-05-01T04:21:30.481Z,9.40
2019-05-01T04:23:57.837Z,9.30
2019-05-01T04:26:25.278Z,9.40
2019-05-01T04:29:15.341Z,9.40
2019-05-01T04:31:56.239Z,9.30
2019-05-01T04:34:32.630Z,9.50
2019-05-01T04:37:01.598Z,9.40
2019-05-01T04:39:28.841Z,9.50
2019-05-01T04:41:56.260Z,9.50
2019-05-01T04:44:23.564Z,9.40
2019-05-01T04:46:53.557Z,9.40
2019-05-01T04:49:21.284Z,9.40
2019-05-01T04:51:48.632Z,9.40
2019-05-01T04:54:16.177Z,9.40
2019-05-01T04:56:43.823Z,9.40
2019-05-01T04:59:11.191Z,9.40
2019-05-01T05:01:57.526Z,9.50
2019-05-01T05:04:25.659Z,9.60
2019-05-01T05:06:53.358Z,9.50
2019-05-01T05:09:39.331Z,9.60
2019-05-01T05:12:08.701Z,9.60
2019-05-01T05:14:37.860Z,9.70
2019-05-01T05:17:08.196Z,9.80
2019-05-01T05:19:35.531Z,9.80
2019-05-01T05:22:03.015Z,9.80
2019-05-01T05:24:30.907Z,9.90
2019-05-01T05:26:59.144Z,9.80
2019-05-01T05:29:27.429Z,9.90
2019-05-01T05:31:58.760Z,9.90
2019-05-01T05:34:26.494Z,9.90
2019-05-01T05:36:57.676Z,10.00
2019-05-01T05:39:32.095Z,10.10
2019-05-01T05:42:01.028Z,10.20
2019-05-01T05:44:28.587Z,10.10
2019-05-01T05:46:56.098Z,9.90
2019-05-01T05:49:23.684Z,9.80
2019-05-01T05:52:08.554Z,10.00
2019-05-01T05:55:13.780Z,10.10
2019-05-01T05:58:01.459Z,10.20
2019-05-01T06:00:57.278Z,10.40
2019-05-01T06:03:45.727Z,10.50
2019-05-01T06:06:39.483Z,10.50
2019-05-01T06:09:08.911Z,10.50
2019-05-01T06:11:55.888Z,10.60
2019-05-01T06:14:43.302Z,10.70
2019-05-01T06:17:23.748Z,10.80
2019-05-01T06:20:05.603Z,10.90
2019-05-01T06:22:52.664Z,10.80
2019-05-01T06:25:25.602Z,11.00
2019-05-01T06:27:52.925Z,11.10
2019-05-01T06:30:20.135Z,11.10
2019-05-01T06:32:47.392Z,11.20
2019-05-01T06:35:14.752Z,11.20
2019-05-01T06:38:02.656Z,11.40
2019-05-01T06:40:40.250Z,11.50
2019-05-01T06:43:25.396Z,11.50
2019-05-01T06:45:55.486Z,11.50
2019-05-01T06:48:23.646Z,11.60
2019-05-01T06:50:55.052Z,11.80
2019-05-01T06:53:22.399Z,11.80
2019-05-01T06:55:51.511Z,11.90
2019-05-01T06:58:20.563Z,12.10
2019-05-01T07:00:50.011Z,12.20
2019-05-01T07:03:17.480Z,12.30
2019-05-01T07:05:48.917Z,12.30
2019-05-01T07:08:23.957Z,12.30
2019-05-01T07:10:45.778Z,12.40
2019-05-01T07:13:12.795Z,12.50
2019-05-01T07:15:40.062Z,12.80
2019-05-01T07:18:07.332Z,12.80
2019-05-01T07:20:54.360Z,13.00
2019-05-01T07:23:21.899Z,13.20
2019-05-01T07:25:49.455Z,13.30
2019-05-01T07:28:16.901Z,13.40
2019-05-01T07:30:54.841Z,13.70
2019-05-01T07:33:19.415Z,13.70
2019-05-01T07:35:47.506Z,13.80
2019-05-01T07:38:14.731Z,14.00
2019-05-01T07:40:42.263Z,14.10
2019-05-01T07:43:32.029Z,14.20
2019-05-01T07:46:13.797Z,14.40
2019-05-01T07:48:43.345Z,14.70
2019-05-01T07:51:11.352Z,14.90
2019-05-01T07:53:38.998Z,15.00
2019-05-01T07:56:07.721Z,15.10
2019-05-01T07:58:35.001Z,15.40
2019-05-01T08:01:07.651Z,15.60
2019-05-01T08:03:38.151Z,15.70
2019-05-01T08:06:04.163Z,15.90
2019-05-01T08:08:31.385Z,16.20
2019-05-01T08:11:05.333Z,16.30
2019-05-01T08:13:30.631Z,16.60
2019-05-01T08:16:02.059Z,16.80
2019-05-01T08:18:38.004Z,17.10
2019-05-01T08:21:26.017Z,17.10
2019-05-01T08:23:52.727Z,17.20
2019-05-01T08:26:20.047Z,17.40
2019-05-01T08:29:12.623Z,17.50
2019-05-01T08:31:58.754Z,17.60
2019-05-01T08:34:26.590Z,17.70
2019-05-01T08:36:53.975Z,17.20
2019-05-01T08:39:21.197Z,17.60
2019-05-01T08:41:48.441Z,17.30
2019-05-01T08:44:15.819Z,17.50
2019-05-01T08:46:53.137Z,17.50
2019-05-01T08:49:33.412Z,17.70
2019-05-01T08:52:04.847Z,17.90
2019-05-01T08:54:33.526Z,17.70
2019-05-01T08:56:59.965Z,18.00
2019-05-01T08:59:27.387Z,18.20
2019-05-01T09:02:08.444Z,18.50
2019-05-01T09:04:25.209Z,18.50
2019-05-01T09:06:53.229Z,18.70
2019-05-01T09:09:20.479Z,18.80
2019-05-01T09:11:47.792Z,19.00
2019-05-01T09:14:15.015Z,19.20
2019-05-01T09:16:42.237Z,19.30
2019-05-01T09:19:10.772Z,19.60
2019-05-01T09:21:39.474Z,19.80
2019-05-01T09:24:07.039Z,19.90
2019-05-01T09:27:02.889Z,20.10
2019-05-01T09:29:37.171Z,20.10
2019-05-01T09:32:05.029Z,20.00
2019-05-01T09:34:33.694Z,20.30
2019-05-01T09:37:00.955Z,20.60
2019-05-01T09:39:28.842Z,20.70
2019-05-01T09:41:56.086Z,20.80
2019-05-01T09:44:23.371Z,21.00
2019-05-01T09:46:50.611Z,21.10
2019-05-01T09:49:20.000Z,21.20
2019-05-01T09:52:09.558Z,21.40
2019-05-01T09:54:56.325Z,21.60
2019-05-01T09:57:23.570Z,21.60
2019-05-01T09:59:50.831Z,21.60
2019-05-01T10:02:18.075Z,21.90
2019-05-01T10:04:45.335Z,21.90
2019-05-01T10:07:12.702Z,21.70
2019-05-01T10:09:40.158Z,21.80
2019-05-01T10:12:11.466Z,22.20
2019-05-01T10:14:37.506Z,22.00
2019-05-01T10:17:05.416Z,22.20
2019-05-01T10:19:32.807Z,22.40
2019-05-01T10:22:02.404Z,22.60
2019-05-01T10:24:32.249Z,22.70
2019-05-01T10:27:01.607Z,22.80
2019-05-01T10:29:52.501Z,23.00
2019-05-01T10:32:39.184Z,23.60
2019-05-01T10:35:23.612Z,24.00
2019-05-01T10:37:50.863Z,23.90
2019-05-01T10:40:18.091Z,24.10
2019-05-01T10:42:45.368Z,24.30
2019-05-01T10:45:12.603Z,24.50
2019-05-01T10:47:39.892Z,24.60
2019-05-01T10:50:07.137Z,24.80
2019-05-01T10:52:34.400Z,25.20
2019-05-01T10:55:01.629Z,25.40
2019-05-01T10:57:28.883Z,25.00
2019-05-01T10:59:56.113Z,24.80
2019-05-01T11:02:23.427Z,25.30
2019-05-01T11:04:50.643Z,24.90
2019-05-01T11:07:17.893Z,25.20
2019-05-01T11:09:45.363Z,25.30
2019-05-01T11:12:12.671Z,25.70
2019-05-01T11:14:39.979Z,25.40
2019-05-01T11:17:07.217Z,25.40
2019-05-01T11:19:34.583Z,25.20
2019-05-01T11:22:01.891Z,25.60
2019-05-01T11:24:29.177Z,25.60
2019-05-01T11:26:56.444Z,25.70
2019-05-01T11:29:23.679Z,26.00
2019-05-01T11:32:09.417Z,26.10
2019-05-01T11:34:54.648Z,26.50
2019-05-01T11:37:47.652Z,26.50
2019-05-01T11:40:24.036Z,26.90
2019-05-01T11:42:51.450Z,28.30
2019-05-01T11:45:19.301Z,29.60
2019-05-01T11:47:46.690Z,30.90
2019-05-01T11:50:14.109Z,32.40
2019-05-01T11:52:41.487Z,32.50
2019-05-01T11:55:08.986Z,33.50
2019-05-01T11:57:36.283Z,34.80
2019-05-01T12:00:04.761Z,34.80
2019-05-01T12:02:31.974Z,35.10
2019-05-01T12:04:59.235Z,35.50
2019-05-01T12:07:26.459Z,35.40
2019-05-01T12:09:53.706Z,34.30
2019-05-01T12:12:22.794Z,33.40
2019-05-01T12:14:50.026Z,32.20
2019-05-01T12:17:34.971Z,31.40
2019-05-01T12:20:02.215Z,31.30
2019-05-01T12:22:29.456Z,31.50
2019-05-01T12:24:56.670Z,32.10
2019-05-01T12:27:23.911Z,31.20
2019-05-01T12:29:51.126Z,30.80
2019-05-01T12:32:18.350Z,31.10
2019-05-01T12:34:45.580Z,31.60
2019-05-01T12:37:35.572Z,31.00
2019-05-01T12:40:03.598Z,31.80
2019-05-01T12:42:31.483Z,32.70
2019-05-01T12:44:58.792Z,31.70
2019-05-01T12:47:38.480Z,31.60
2019-05-01T12:50:06.257Z,32.80
2019-05-01T12:52:59.060Z,33.90
2019-05-01T12:55:30.677Z,34.70
2019-05-01T12:57:57.931Z,35.90
2019-05-01T13:00:44.971Z,37.40
2019-05-01T13:03:12.247Z,37.80
2019-05-01T13:05:39.463Z,37.20
2019-05-01T13:08:06.727Z,36.60
2019-05-01T13:10:33.955Z,35.50
2019-05-01T13:13:01.196Z,35.10
2019-05-01T13:15:28.471Z,34.30
2019-05-01T13:17:55.795Z,33.80
2019-05-01T13:20:23.041Z,32.70
2019-05-01T13:22:50.259Z,32.20
2019-05-01T13:25:17.478Z,32.00
2019-05-01T13:27:57.155Z,31.40
2019-05-01T13:30:41.699Z,31.60
2019-05-01T13:33:08.931Z,32.00
2019-05-01T13:35:36.261Z,32.00
2019-05-01T13:38:03.520Z,31.80
2019-05-01T13:40:31.358Z,32.40
2019-05-01T13:42:58.639Z,32.00
2019-05-01T13:45:25.864Z,32.60
2019-05-01T13:47:54.624Z,31.50
2019-05-01T13:50:22.667Z,32.70
2019-05-01T13:52:49.916Z,32.70
2019-05-01T13:55:18.189Z,32.40
2019-05-01T13:57:45.423Z,32.00
2019-05-01T14:00:13.371Z,31.50
2019-05-01T14:02:40.611Z,30.70
2019-05-01T14:05:08.243Z,30.30
2019-05-01T14:07:35.475Z,29.60
2019-05-01T14:10:03.963Z,30.30
2019-05-01T14:12:31.178Z,31.10
2019-05-01T14:14:58.435Z,32.30
2019-05-01T14:17:25.741Z,33.10
2019-05-01T14:20:02.590Z,33.50
2019-05-01T14:23:07.558Z,34.10
2019-05-01T14:25:53.113Z,33.40
2019-05-01T14:28:20.492Z,31.40
2019-05-01T14:30:47.791Z,30.60
2019-05-01T14:33:15.023Z,30.40
2019-05-01T14:35:42.255Z,29.70
2019-05-01T14:38:09.505Z,29.50
2019-05-01T14:40:36.752Z,28.60
2019-05-01T14:43:04.135Z,27.90
2019-05-01T14:45:31.363Z,27.00
2019-05-01T14:47:58.613Z,26.50
2019-05-01T14:50:25.983Z,26.30
2019-05-01T14:52:53.207Z,25.90
2019-05-01T14:55:20.459Z,25.00
2019-05-01T14:57:47.729Z,24.50
2019-05-01T15:00:15.864Z,24.30
2019-05-01T15:02:43.107Z,24.00
2019-05-01T15:05:10.355Z,23.40
2019-05-01T15:07:43.755Z,23.30
2019-05-01T15:10:06.920Z,23.00
2019-05-01T15:12:34.307Z,22.80
2019-05-01T15:15:22.895Z,22.50
2019-05-01T15:18:04.647Z,22.00
2019-05-01T15:20:31.877Z,21.90
2019-05-01T15:22:59.224Z,21.90
2019-05-01T15:25:26.484Z,21.60
2019-05-01T15:27:53.727Z,21.40
2019-05-01T15:30:20.984Z,21.40
2019-05-01T15:32:48.221Z,21.30
2019-05-01T15:35:15.429Z,21.30
2019-05-01T15:37:55.757Z,21.30
2019-05-01T15:40:19.363Z,21.20
2019-05-01T15:42:51.657Z,21.00
2019-05-01T15:45:18.935Z,20.90
2019-05-01T15:47:46.174Z,20.90
2019-05-01T15:50:13.491Z,20.90
2019-05-01T15:52:40.699Z,21.00
2019-05-01T15:55:08.276Z,20.90
2019-05-01T15:57:35.611Z,20.80
2019-05-01T16:00:04.408Z,20.80
2019-05-01T16:02:31.631Z,20.70
2019-05-01T16:04:58.919Z,20.70
2019-05-01T16:07:26.162Z,20.60
2019-05-01T16:09:53.403Z,20.20
2019-05-01T16:12:38.219Z,20.60
2019-05-01T16:15:09.810Z,20.40
2019-05-01T16:17:37.040Z,20.40
2019-05-01T16:20:05.051Z,20.40
2019-05-01T16:22:32.279Z,20.40
2019-05-01T16:24:59.551Z,20.40
2019-05-01T16:27:26.875Z,20.30
2019-05-01T16:29:54.118Z,20.20
2019-05-01T16:32:21.399Z,20.30
2019-05-01T16:34:48.645Z,20.00
2019-05-01T16:37:16.047Z,20.10
2019-05-01T16:40:05.400Z,20.10
2019-05-01T16:42:37.667Z,20.10
2019-05-01T16:45:05.583Z,20.00
2019-05-01T16:47:32.837Z,20.10
2019-05-01T16:50:00.053Z,20.10
2019-05-01T16:52:31.267Z,20.00
2019-05-01T16:54:59.739Z,20.00
2019-05-01T16:57:27.075Z,20.00
2019-05-01T16:59:54.431Z,20.00
2019-05-01T17:02:50.327Z,19.90
2019-05-01T17:05:37.195Z,20.00
2019-05-01T17:08:10.828Z,20.00
2019-05-01T17:10:39.643Z,20.00
2019-05-01T17:13:07.396Z,20.10
2019-05-01T17:15:40.273Z,20.00
2019-05-01T17:18:07.695Z,19.90
2019-05-01T17:20:35.047Z,19.90
2019-05-01T17:23:06.307Z,19.90
2019-05-01T17:25:33.610Z,19.80
2019-05-01T17:28:02.974Z,19.70
2019-05-01T17:30:40.764Z,19.60
2019-05-01T17:33:08.011Z,19.50
2019-05-01T17:35:36.853Z,19.30
2019-05-01T17:38:04.499Z,19.40
2019-05-01T17:40:31.819Z,19.40
2019-05-01T17:42:59.064Z,19.40
2019-05-01T17:45:29.954Z,19.30
2019-05-01T17:47:57.814Z,19.30
2019-05-01T17:50:24.711Z,19.30
2019-05-01T17:52:52.031Z,19.10
2019-05-01T17:55:19.243Z,19.20
2019-05-01T17:57:46.524Z,19.10
2019-05-01T18:00:31.681Z,19.00
2019-05-01T18:03:05.786Z,19.00
2019-05-01T18:05:56.187Z,19.00
2019-05-01T18:08:22.500Z,18.90
2019-05-01T18:10:49.772Z,18.80
2019-05-01T18:13:17.032Z,18.80
2019-05-01T18:15:44.959Z,18.80
2019-05-01T18:18:15.164Z,18.70
2019-05-01T18:20:41.320Z,18.60
2019-05-01T18:23:35.628Z,18.60
2019-05-01T18:26:43.573Z,18.50
2019-05-01T18:29:13.686Z,18.50
2019-05-01T18:31:40.939Z,18.40
2019-05-01T18:34:08.170Z,18.30
2019-05-01T18:36:40.019Z,18.30
2019-05-01T18:39:16.884Z,18.20
2019-05-01T18:41:48.303Z,18.10
2019-05-01T18:44:17.583Z,18.10
2019-05-01T18:46:44.812Z,18.00
2019-05-01T18:49:12.155Z,17.90
2019-05-01T18:51:40.657Z,17.80
2019-05-01T18:54:08.172Z,17.80
2019-05-01T18:56:38.269Z,17.70
2019-05-01T18:59:04.543Z,17.60
2019-05-01T19:01:31.899Z,17.50
2019-05-01T19:03:59.153Z,17.40
2019-05-01T19:06:40.102Z,17.40
2019-05-01T19:08:56.779Z,17.30
2019-05-01T19:11:24.159Z,17.20
2019-05-01T19:13:51.510Z,17.10
2019-05-01T19:16:18.883Z,17.10
2019-05-01T19:18:46.327Z,17.00
2019-05-01T19:21:14.524Z,16.90
2019-05-01T19:23:41.847Z,16.90
2019-05-01T19:26:10.036Z,16.90
2019-05-01T19:28:37.472Z,16.90
2019-05-01T19:31:04.689Z,16.80
2019-05-01T19:33:32.006Z,16.70
2019-05-01T19:36:02.733Z,16.60
2019-05-01T19:38:34.906Z,16.70
2019-05-01T19:41:03.652Z,16.60
2019-05-01T19:43:29.895Z,16.50
2019-05-01T19:45:57.508Z,16.40
2019-05-01T19:48:25.019Z,16.30
2019-05-01T19:50:52.393Z,16.20
2019-05-01T19:53:20.395Z,16.20
2019-05-01T19:55:48.723Z,16.30
2019-05-01T19:58:16.011Z,16.20
2019-05-01T20:00:55.236Z,16.10
2019-05-01T20:03:22.553Z,16.10
2019-05-01T20:05:50.138Z,16.00
2019-05-01T20:08:17.799Z,16.10
2019-05-01T20:10:45.037Z,16.00
2019-05-01T20:13:13.316Z,16.00
2019-05-01T20:15:41.130Z,16.00
2019-05-01T20:18:08.353Z,16.00
2019-05-01T20:20:35.651Z,15.90
2019-05-01T20:23:03.047Z,15.80
2019-05-01T20:25:30.523Z,15.80
2019-05-01T20:27:57.769Z,15.80
2019-05-01T20:30:26.412Z,15.70
2019-05-01T20:32:58.086Z,15.60
2019-05-01T20:35:23.821Z,15.60
2019-05-01T20:37:52.111Z,15.50
2019-05-01T20:40:19.920Z,15.60
2019-05-01T20:42:47.380Z,15.50
2019-05-01T20:45:18.203Z,15.40
2019-05-01T20:47:46.438Z,15.30
2019-05-01T20:50:14.047Z,15.20
2019-05-01T20:52:41.567Z,15.30
2019-05-01T20:55:08.847Z,15.30
2019-05-01T20:57:37.862Z,15.30
2019-05-01T21:00:05.226Z,15.20
2019-05-01T21:02:32.483Z,15.20
2019-05-01T21:05:34.330Z,15.10
2019-05-01T21:08:06.391Z,15.10
2019-05-01T21:10:50.655Z,15.10
2019-05-01T21:13:17.892Z,15.00
2019-05-01T21:15:47.060Z,15.10
2019-05-01T21:18:13.962Z,15.10
2019-05-01T21:20:41.207Z,15.10
2019-05-01T21:23:10.873Z,15.10
2019-05-01T21:25:37.597Z,15.10
2019-05-01T21:28:04.860Z,14.90
2019-05-01T21:30:43.988Z,15.00
2019-05-01T21:33:13.881Z,15.10
2019-05-01T21:35:40.883Z,15.10
2019-05-01T21:38:08.251Z,15.00
2019-05-01T21:40:40.621Z,15.00
2019-05-01T21:43:04.839Z,15.00
2019-05-01T21:45:33.047Z,15.00
2019-05-01T21:48:00.522Z,15.00
2019-05-01T21:50:27.759Z,14.90
2019-05-01T21:52:58.068Z,15.00
2019-05-01T21:55:25.810Z,15.00
2019-05-01T21:57:55.027Z,14.90
2019-05-01T22:00:24.873Z,15.00
2019-05-01T22:02:52.038Z,14.90
2019-05-01T22:05:19.362Z,14.80
2019-05-01T22:07:46.596Z,14.80
2019-05-01T22:10:14.402Z,14.80
2019-05-01T22:12:44.029Z,14.80
2019-05-01T22:15:25.611Z,14.80
2019-05-01T22:18:15.430Z,14.80
2019-05-01T22:20:57.516Z,14.70
2019-05-01T22:23:26.847Z,14.80
2019-05-01T22:25:55.587Z,14.70
2019-05-01T22:28:28.931Z,14.70
2019-05-01T22:31:16.808Z,14.70
2019-05-01T22:33:45.368Z,14.70
2019-05-01T22:36:13.084Z,14.70
2019-05-01T22:38:40.326Z,14.60
2019-05-01T22:41:10.124Z,14.50
2019-05-01T22:43:37.363Z,14.50
2019-05-01T22:46:06.755Z,14.50
2019-05-01T22:48:34.003Z,14.40
2019-05-01T22:51:08.225Z,14.50
2019-05-01T22:53:35.439Z,14.40
2019-05-01T22:56:04.046Z,14.40
2019-05-01T22:58:31.499Z,14.40
2019-05-01T23:00:59.918Z,14.50
2019-05-01T23:03:41.329Z,14.40
2019-05-01T23:06:08.079Z,14.30
2019-05-01T23:08:35.308Z,14.40
2019-05-01T23:11:02.631Z,14.40
2019-05-01T23:13:29.863Z,14.40
2019-05-01T23:15:58.074Z,14.30
2019-05-01T23:18:25.575Z,14.40
2019-05-01T23:20:52.793Z,14.40
2019-05-01T23:23:20.011Z,14.40
2019-05-01T23:25:47.342Z,14.30
2019-05-01T23:28:14.557Z,14.30
2019-05-01T23:30:41.810Z,14.20
2019-05-01T23:33:09.064Z,14.20
2019-05-01T23:35:36.308Z,14.30
2019-05-01T23:38:03.538Z,14.30
2019-05-01T23:40:30.855Z,14.30
2019-05-01T23:42:58.111Z,14.30
2019-05-01T23:45:25.320Z,14.20
2019-05-01T23:47:52.567Z,14.20
2019-05-01T23:50:39.551Z,14.20
2019-05-01T23:53:09.009Z,14.10
2019-05-01T23:55:35.916Z,14.10
2019-05-01T23:58:03.296Z,14.10
